createdAt,value
2019-02-07T00:00:58.460Z,16.23
2019-02-07T00:03:48.838Z,14.53
2019-02-07T00:06:38.855Z,14.20
2019-02-07T00:09:28.778Z,13.00
2019-02-07T00:12:18.635Z,16.07
2019-02-07T00:15:09.220Z,15.27
2019-02-07T00:17:58.863Z,19.10
2019-02-07T00:20:49.745Z,16.27
2019-02-07T00:23:40.011Z,15.23
2019-02-07T00:26:30.157Z,19.20
2019-02-07T00:29:20.577Z,13.40
2019-02-07T00:32:10.486Z,15.93
2019-02-07T00:35:00.353Z,13.80
2019-02-07T00:37:50.379Z,16.50
2019-02-07T00:40:40.414Z,16.30
2019-02-07T00:43:30.347Z,18.67
2019-02-07T00:46:20.074Z,11.80
2019-02-07T00:49:09.938Z,15.10
2019-02-07T00:52:00.246Z,11.27
2019-02-07T00:54:50.193Z,26.50
2019-02-07T00:57:40.078Z,17.97
2019-02-07T01:00:30.196Z,12.60
2019-02-07T01:03:19.868Z,17.50
2019-02-07T01:06:09.724Z,16.97
2019-02-07T01:09:00.023Z,16.03
2019-02-07T01:11:52.142Z,14.47
2019-02-07T01:14:42.532Z,16.87
2019-02-07T01:17:32.266Z,14.03
2019-02-07T01:20:22.521Z,14.47
2019-02-07T01:23:12.673Z,19.00
2019-02-07T01:26:02.734Z,16.97
2019-02-07T01:28:52.446Z,16.37
2019-02-07T01:31:42.185Z,18.70
2019-02-07T01:34:32.147Z,11.93
2019-02-07T01:37:23.380Z,11.57
2019-02-07T01:40:17.132Z,12.90
2019-02-07T01:43:06.691Z,12.13
2019-02-07T01:45:57.110Z,12.67
2019-02-07T01:48:46.983Z,8.77
2019-02-07T01:51:37.258Z,12.37
2019-02-07T01:54:27.271Z,11.23
2019-02-07T01:57:17.274Z,10.13
2019-02-07T02:00:11.506Z,12.00
2019-02-07T02:03:02.301Z,13.57
2019-02-07T02:05:53.175Z,14.13
2019-02-07T02:08:42.809Z,11.80
2019-02-07T02:11:34.276Z,13.60
2019-02-07T02:14:24.425Z,9.97
2019-02-07T02:17:14.498Z,9.40
2019-02-07T02:20:04.953Z,9.60
2019-02-07T02:22:56.124Z,8.37
2019-02-07T02:25:46.246Z,11.97
2019-02-07T02:28:37.400Z,11.20
2019-02-07T02:31:27.432Z,11.23
2019-02-07T02:34:17.422Z,11.03
2019-02-07T02:37:07.399Z,12.30
2019-02-07T02:39:57.453Z,12.40
2019-02-07T02:42:47.569Z,11.03
2019-02-07T02:45:38.035Z,9.87
2019-02-07T02:48:28.952Z,9.00
2019-02-07T02:51:19.076Z,11.17
2019-02-07T02:54:29.264Z,9.73
2019-02-07T02:57:19.417Z,11.50
2019-02-07T03:00:18.236Z,8.40
2019-02-07T03:03:19.187Z,11.83
2019-02-07T03:06:19.675Z,6.37
2019-02-07T03:09:22.028Z,8.33
2019-02-07T03:12:23.451Z,9.27
2019-02-07T03:15:34.477Z,10.60
2019-02-07T03:18:38.792Z,10.17
2019-02-07T03:21:35.222Z,8.00
2019-02-07T03:24:47.085Z,11.33
2019-02-07T03:27:55.667Z,7.47
2019-02-07T03:31:19.009Z,8.20
2019-02-07T03:34:20.963Z,9.47
2019-02-07T03:37:32.626Z,9.20
2019-02-07T03:40:40.329Z,6.30
2019-02-07T03:43:55.526Z,9.13
2019-02-07T03:47:02.667Z,10.63
2019-02-07T03:50:08.673Z,8.90
2019-02-07T03:53:19.978Z,8.07
2019-02-07T03:56:27.940Z,8.83
2019-02-07T03:59:35.270Z,8.70
2019-02-07T04:03:02.677Z,11.80
2019-02-07T04:06:11.560Z,10.13
2019-02-07T04:09:10.713Z,9.53
2019-02-07T04:12:14.659Z,8.73
2019-02-07T04:15:23.846Z,9.27
2019-02-07T04:18:35.813Z,11.03
2019-02-07T04:21:40.430Z,13.17
2019-02-07T04:25:04.784Z,8.60
2019-02-07T04:28:06.830Z,9.67
2019-02-07T04:31:22.364Z,8.47
2019-02-07T04:34:27.326Z,7.90
2019-02-07T04:37:40.531Z,7.63
2019-02-07T04:40:49.407Z,6.60
2019-02-07T04:44:02.988Z,8.70
2019-02-07T04:47:11.705Z,9.70
2019-02-07T04:50:19.479Z,11.20
2019-02-07T04:53:27.308Z,8.70
2019-02-07T04:56:34.112Z,8.77
2019-02-07T04:59:47.641Z,10.73
2019-02-07T05:03:01.797Z,8.40
2019-02-07T05:06:00.901Z,11.77
2019-02-07T05:08:58.441Z,10.17
2019-02-07T05:12:06.191Z,9.93
2019-02-07T05:15:07.288Z,13.03
2019-02-07T05:18:25.389Z,8.63
2019-02-07T05:21:34.721Z,10.93
2019-02-07T05:24:41.455Z,10.60
2019-02-07T05:27:49.470Z,12.10
2019-02-07T05:30:45.580Z,17.33
2019-02-07T05:33:50.944Z,12.87
2019-02-07T05:37:07.652Z,18.10
2019-02-07T05:40:15.035Z,12.43
2019-02-07T05:43:31.743Z,11.97
2019-02-07T05:46:52.875Z,16.37
2019-02-07T05:49:57.806Z,13.50
2019-02-07T05:53:05.551Z,14.90
2019-02-07T05:56:10.722Z,18.40
2019-02-07T05:59:07.786Z,12.87
2019-02-07T06:02:09.860Z,11.50
2019-02-07T06:05:13.413Z,14.70
2019-02-07T06:08:31.265Z,11.37
2019-02-07T06:11:32.038Z,17.43
2019-02-07T06:14:39.758Z,15.80
2019-02-07T06:17:47.070Z,21.73
2019-02-07T06:20:58.701Z,14.13
2019-02-07T06:24:07.312Z,18.87
2019-02-07T06:27:16.141Z,26.77
2019-02-07T06:30:27.250Z,21.50
2019-02-07T06:33:36.009Z,17.20
2019-02-07T06:36:37.438Z,21.60
2019-02-07T06:39:44.701Z,15.47
2019-02-07T06:42:42.168Z,15.77
2019-02-07T06:45:38.655Z,13.53
2019-02-07T06:48:37.700Z,17.47
2019-02-07T06:51:35.156Z,12.40
2019-02-07T06:54:45.233Z,13.17
2019-02-07T06:57:53.984Z,13.10
2019-02-07T07:00:57.327Z,16.27
2019-02-07T07:04:07.762Z,14.43
2019-02-07T07:07:13.150Z,11.00
2019-02-07T07:10:21.763Z,13.37
2019-02-07T07:13:38.005Z,12.63
2019-02-07T07:16:40.326Z,9.90
2019-02-07T07:19:48.325Z,10.83
2019-02-07T07:22:56.345Z,9.27
2019-02-07T07:26:03.937Z,7.90
2019-02-07T07:29:19.427Z,11.00
2019-02-07T07:32:22.827Z,10.37
2019-02-07T07:35:39.952Z,10.00
2019-02-07T07:38:54.012Z,9.90
2019-02-07T07:42:11.224Z,10.57
2019-02-07T07:45:19.078Z,12.10
2019-02-07T07:48:27.352Z,12.00
2019-02-07T07:51:35.162Z,13.90
2019-02-07T07:54:44.188Z,10.60
2019-02-07T07:57:55.943Z,14.63
2019-02-07T08:01:03.708Z,8.90
2019-02-07T08:04:15.473Z,15.43
2019-02-07T08:07:19.579Z,13.90
2019-02-07T08:10:39.983Z,14.13
2019-02-07T08:14:03.747Z,12.87
2019-02-07T08:17:24.907Z,15.93
2019-02-07T08:20:33.838Z,16.20
2019-02-07T08:23:34.979Z,16.00
2019-02-07T08:26:43.445Z,16.00
2019-02-07T08:30:07.248Z,15.10
2019-02-07T08:33:11.917Z,12.80
2019-02-07T08:36:21.204Z,11.00
2019-02-07T08:39:30.412Z,11.87
2019-02-07T08:42:39.419Z,13.70
2019-02-07T08:45:43.265Z,9.43
2019-02-07T08:48:48.933Z,8.37
2019-02-07T08:52:08.801Z,6.63
2019-02-07T08:55:11.900Z,12.63
2019-02-07T08:58:20.517Z,10.60
2019-02-07T09:01:21.044Z,14.90
2019-02-07T09:04:39.414Z,13.47
2019-02-07T09:08:03.671Z,10.87
2019-02-07T09:11:11.632Z,10.27
2019-02-07T09:14:23.491Z,9.53
2019-02-07T09:17:24.526Z,11.87
2019-02-07T09:20:24.514Z,11.17
2019-02-07T09:23:39.334Z,15.70
2019-02-07T09:26:47.183Z,15.07
2019-02-07T09:29:54.833Z,6.87
2019-02-07T09:32:58.727Z,11.97
2019-02-07T09:36:10.221Z,11.60
2019-02-07T09:39:17.525Z,13.47
2019-02-07T09:42:25.494Z,7.53
2019-02-07T09:45:44.096Z,13.80
2019-02-07T09:48:55.871Z,11.03
2019-02-07T09:51:54.235Z,10.00
2019-02-07T09:55:03.466Z,13.80
2019-02-07T09:58:07.659Z,11.63
2019-02-07T10:01:15.502Z,10.27
2019-02-07T10:04:23.388Z,15.90
2019-02-07T10:07:21.690Z,13.87
2019-02-07T10:10:40.720Z,12.20
2019-02-07T10:14:07.709Z,11.53
2019-02-07T10:17:14.779Z,14.47
2019-02-07T10:20:23.675Z,21.63
2019-02-07T10:23:26.494Z,13.60
2019-02-07T10:26:30.822Z,15.67
2019-02-07T10:29:40.160Z,12.63
2019-02-07T10:32:44.675Z,14.60
2019-02-07T10:35:52.070Z,17.03
2019-02-07T10:38:56.700Z,13.33
2019-02-07T10:41:57.757Z,14.83
2019-02-07T10:45:04.951Z,18.10
2019-02-07T10:48:19.530Z,13.90
2019-02-07T10:51:28.723Z,16.10
2019-02-07T10:54:36.245Z,21.53
2019-02-07T10:57:43.935Z,22.83
2019-02-07T11:01:11.221Z,20.33
2019-02-07T11:04:21.333Z,14.97
2019-02-07T11:07:26.437Z,17.40
2019-02-07T11:10:50.512Z,14.87
2019-02-07T11:14:10.986Z,16.97
2019-02-07T11:17:18.158Z,21.20
2019-02-07T11:20:33.324Z,19.93
2019-02-07T11:23:58.610Z,15.00
2019-02-07T11:27:07.370Z,26.20
2019-02-07T11:30:09.229Z,20.30
2019-02-07T11:33:27.282Z,20.10
2019-02-07T11:36:36.012Z,22.93
2019-02-07T11:39:44.860Z,36.83
2019-02-07T11:42:54.319Z,18.70
2019-02-07T11:45:58.275Z,20.40
2019-02-07T11:49:06.604Z,21.63
2019-02-07T11:52:09.064Z,24.67
2019-02-07T11:55:13.912Z,23.20
2019-02-07T11:58:13.911Z,24.70
2019-02-07T12:01:21.706Z,19.27
2019-02-07T12:04:33.296Z,21.70
2019-02-07T12:07:37.732Z,25.10
2019-02-07T12:10:37.147Z,26.43
2019-02-07T12:13:51.727Z,24.40
2019-02-07T12:17:10.907Z,17.17
2019-02-07T12:20:23.682Z,27.00
2019-02-07T12:23:27.803Z,23.90
2019-02-07T12:26:46.045Z,22.67
2019-02-07T12:29:53.388Z,21.30
2019-02-07T12:33:04.649Z,20.63
2019-02-07T12:36:02.192Z,20.67
2019-02-07T12:38:58.300Z,20.57
2019-02-07T12:41:58.532Z,24.23
2019-02-07T12:45:17.387Z,21.73
2019-02-07T12:48:25.311Z,27.60
2019-02-07T12:51:40.940Z,29.53
2019-02-07T12:54:54.583Z,22.50
2019-02-07T12:58:01.835Z,27.77
2019-02-07T13:01:17.504Z,24.77
2019-02-07T13:04:26.212Z,21.60
2019-02-07T13:07:47.950Z,25.97
2019-02-07T13:10:56.495Z,31.00
2019-02-07T13:14:01.116Z,26.83
2019-02-07T13:17:08.569Z,27.53
2019-02-07T13:20:12.097Z,32.77
2019-02-07T13:23:24.414Z,30.10
2019-02-07T13:26:23.821Z,36.20
2019-02-07T13:29:35.814Z,28.93
2019-02-07T13:32:37.783Z,35.90
2019-02-07T13:35:53.055Z,31.67
2019-02-07T13:39:00.129Z,40.80
2019-02-07T13:42:07.497Z,33.40
2019-02-07T13:45:25.427Z,34.97
2019-02-07T13:48:33.370Z,34.93
2019-02-07T13:51:42.181Z,32.23
2019-02-07T13:54:53.698Z,34.70
2019-02-07T13:57:53.300Z,34.60
2019-02-07T14:01:00.885Z,37.07
2019-02-07T14:04:18.727Z,33.03
2019-02-07T14:07:27.423Z,32.77
2019-02-07T14:10:32.997Z,38.33
2019-02-07T14:13:41.215Z,31.83
2019-02-07T14:16:54.236Z,36.17
2019-02-07T14:20:06.404Z,36.23
2019-02-07T14:23:05.051Z,34.20
2019-02-07T14:26:12.771Z,31.70
2019-02-07T14:29:16.701Z,31.73
2019-02-07T14:32:25.470Z,27.43
2019-02-07T14:35:28.185Z,31.27
2019-02-07T14:38:46.551Z,37.70
2019-02-07T14:42:04.640Z,33.80
2019-02-07T14:45:19.185Z,31.87
2019-02-07T14:48:11.114Z,38.33
2019-02-07T14:51:01.162Z,39.50
2019-02-07T14:53:51.224Z,33.07
2019-02-07T14:56:42.064Z,35.03
2019-02-07T14:59:31.652Z,29.27
2019-02-07T15:02:21.133Z,31.73
2019-02-07T15:05:12.190Z,34.90
2019-02-07T15:08:01.862Z,29.77
2019-02-07T15:10:51.707Z,32.40
2019-02-07T15:13:41.614Z,34.77
2019-02-07T15:16:31.631Z,31.63
2019-02-07T15:19:21.823Z,34.77
2019-02-07T15:22:13.123Z,32.10
2019-02-07T15:25:02.880Z,32.37
2019-02-07T15:27:53.568Z,28.60
2019-02-07T15:30:43.404Z,34.00
2019-02-07T15:33:33.337Z,33.77
2019-02-07T15:36:23.220Z,31.50
2019-02-07T15:39:16.058Z,35.27
2019-02-07T15:42:06.203Z,32.73
2019-02-07T15:44:57.686Z,33.97
2019-02-07T15:47:48.101Z,35.10
2019-02-07T15:50:38.548Z,28.60
2019-02-07T15:53:29.881Z,29.20
2019-02-07T15:56:20.071Z,26.17
2019-02-07T15:59:24.387Z,34.43
2019-02-07T16:02:22.006Z,30.40
2019-02-07T16:05:12.783Z,30.57
2019-02-07T16:08:02.523Z,28.00
2019-02-07T16:10:52.524Z,31.07
2019-02-07T16:13:42.501Z,30.77
2019-02-07T16:16:31.918Z,28.47
2019-02-07T16:19:21.653Z,31.20
2019-02-07T16:22:12.033Z,36.17
2019-02-07T16:25:02.501Z,24.67
2019-02-07T16:27:52.554Z,32.37
2019-02-07T16:30:43.466Z,25.67
2019-02-07T16:33:33.624Z,30.40
2019-02-07T16:36:23.489Z,27.33
2019-02-07T16:39:14.778Z,31.00
2019-02-07T16:42:06.543Z,30.53
2019-02-07T16:44:56.638Z,25.00
2019-02-07T16:47:46.673Z,30.80
2019-02-07T16:50:37.275Z,32.23
2019-02-07T16:53:27.500Z,26.63
2019-02-07T16:56:17.086Z,35.70
2019-02-07T16:59:07.298Z,33.80
2019-02-07T17:01:57.050Z,27.23
2019-02-07T17:04:46.782Z,29.60
2019-02-07T17:07:36.578Z,32.70
2019-02-07T17:10:30.444Z,27.80
2019-02-07T17:13:19.791Z,28.03
2019-02-07T17:16:09.951Z,31.67
2019-02-07T17:18:59.937Z,27.83
2019-02-07T17:21:50.263Z,31.60
2019-02-07T17:24:40.364Z,25.43
2019-02-07T17:27:30.524Z,26.63
2019-02-07T17:30:21.286Z,27.73
2019-02-07T17:33:12.065Z,27.53
2019-02-07T17:36:01.922Z,27.23
2019-02-07T17:38:52.402Z,22.23
2019-02-07T17:41:42.314Z,20.43
2019-02-07T17:44:32.690Z,25.53
2019-02-07T17:47:22.839Z,27.87
2019-02-07T17:50:18.269Z,21.80
2019-02-07T17:53:08.421Z,30.23
2019-02-07T17:55:57.872Z,22.90
2019-02-07T17:58:47.563Z,24.10
2019-02-07T18:01:38.045Z,25.87
2019-02-07T18:04:27.729Z,23.47
2019-02-07T18:07:17.737Z,31.17
2019-02-07T18:10:09.512Z,23.60
2019-02-07T18:12:58.685Z,24.20
2019-02-07T18:15:48.746Z,26.93
2019-02-07T18:18:38.849Z,23.57
2019-02-07T18:21:34.249Z,26.53
2019-02-07T18:24:21.056Z,25.90
2019-02-07T18:27:11.297Z,23.20
2019-02-07T18:30:01.388Z,28.33
2019-02-07T18:32:51.987Z,24.60
2019-02-07T18:35:41.982Z,23.87
2019-02-07T18:38:32.132Z,23.07
2019-02-07T18:41:22.188Z,27.60
2019-02-07T18:44:12.349Z,22.20
2019-02-07T18:47:01.784Z,28.40
2019-02-07T18:49:51.492Z,24.13
2019-02-07T18:52:41.848Z,21.87
2019-02-07T18:55:32.187Z,28.67
2019-02-07T18:58:22.517Z,29.10
2019-02-07T19:01:12.528Z,24.90
2019-02-07T19:04:02.491Z,27.30
2019-02-07T19:06:52.820Z,30.27
2019-02-07T19:09:42.657Z,26.00
2019-02-07T19:12:32.753Z,26.00
2019-02-07T19:15:25.006Z,29.83
2019-02-07T19:18:14.622Z,26.97
2019-02-07T19:21:04.518Z,26.63
2019-02-07T19:23:54.989Z,25.83
2019-02-07T19:26:44.623Z,25.10
2019-02-07T19:29:34.983Z,25.90
2019-02-07T19:32:25.540Z,26.13
2019-02-07T19:35:15.794Z,29.90
2019-02-07T19:38:07.914Z,36.63
2019-02-07T19:40:58.297Z,29.07
2019-02-07T19:43:48.185Z,27.47
2019-02-07T19:46:38.722Z,33.73
2019-02-07T19:49:29.259Z,24.20
2019-02-07T19:52:19.316Z,33.23
2019-02-07T19:55:13.679Z,25.00
2019-02-07T19:58:03.860Z,29.90
2019-02-07T20:00:54.329Z,31.20
2019-02-07T20:03:44.827Z,29.67
2019-02-07T20:06:34.620Z,29.60
2019-02-07T20:09:24.421Z,30.40
2019-02-07T20:12:14.537Z,29.17
2019-02-07T20:15:08.677Z,28.40
2019-02-07T20:20:50.920Z,29.47
2019-02-07T20:23:41.184Z,32.03
2019-02-07T20:26:31.113Z,26.60
2019-02-07T20:29:21.093Z,26.20
2019-02-07T20:32:11.128Z,32.37
2019-02-07T20:35:01.230Z,32.07
2019-02-07T20:37:52.043Z,27.17
2019-02-07T20:40:42.550Z,28.53
2019-02-07T20:43:33.583Z,26.53
2019-02-07T20:46:22.702Z,31.57
2019-02-07T20:49:12.576Z,30.37
2019-02-07T20:52:02.452Z,31.43
2019-02-07T20:54:52.839Z,29.53
2019-02-07T20:57:43.332Z,30.83
2019-02-07T21:00:35.777Z,33.97
2019-02-07T21:03:25.778Z,26.47
2019-02-07T21:06:15.819Z,34.33
2019-02-07T21:09:09.422Z,36.77
2019-02-07T21:12:00.310Z,32.27
2019-02-07T21:14:49.922Z,26.47
2019-02-07T21:17:39.803Z,29.70
2019-02-07T21:20:30.117Z,27.63
2019-02-07T21:23:19.852Z,37.03
2019-02-07T21:26:10.090Z,36.57
2019-02-07T21:29:00.149Z,32.87
2019-02-07T21:31:50.327Z,35.23
2019-02-07T21:34:40.906Z,39.93
2019-02-07T21:37:30.602Z,37.33
2019-02-07T21:40:27.482Z,38.27
2019-02-07T21:43:19.006Z,39.27
2019-02-07T21:46:09.139Z,35.63
2019-02-07T21:48:59.579Z,33.07
2019-02-07T21:51:49.448Z,35.90
2019-02-07T21:54:41.222Z,32.50
2019-02-07T21:57:31.815Z,32.70
2019-02-07T22:00:34.459Z,36.47
2019-02-07T22:03:24.336Z,34.27
2019-02-07T22:06:14.257Z,32.53
2019-02-07T22:09:05.947Z,31.77
2019-02-07T22:11:56.852Z,30.40
2019-02-07T22:14:46.272Z,38.33
2019-02-07T22:17:36.492Z,45.20
2019-02-07T22:20:27.498Z,33.30
2019-02-07T22:23:17.331Z,35.47
2019-02-07T22:26:07.438Z,35.43
2019-02-07T22:28:57.338Z,32.90
2019-02-07T22:31:47.458Z,35.37
2019-02-07T22:34:39.434Z,32.20
2019-02-07T22:37:29.181Z,29.43
2019-02-07T22:40:22.067Z,27.30
2019-02-07T22:43:12.178Z,29.27
2019-02-07T22:46:02.324Z,35.93
2019-02-07T22:48:52.555Z,27.90
2019-02-07T22:51:42.949Z,26.63
2019-02-07T22:54:32.883Z,30.87
2019-02-07T22:57:22.921Z,25.70
2019-02-07T23:01:28.286Z,27.37
2019-02-07T23:04:19.315Z,35.03
2019-02-07T23:07:09.221Z,30.27
2019-02-07T23:09:59.553Z,35.20
2019-02-07T23:12:49.686Z,30.40
2019-02-07T23:15:40.443Z,33.90
2019-02-07T23:18:30.274Z,35.00
2019-02-07T23:21:19.321Z,27.67
2019-02-07T23:24:09.350Z,33.33
2019-02-07T23:27:00.748Z,27.73
2019-02-07T23:29:50.337Z,30.73
2019-02-07T23:32:40.030Z,28.10
2019-02-07T23:35:29.885Z,30.70
2019-02-07T23:38:19.733Z,32.87
2019-02-07T23:41:11.061Z,31.90
2019-02-07T23:44:01.220Z,23.50
2019-02-07T23:46:51.005Z,23.63
2019-02-07T23:49:41.183Z,26.93
2019-02-07T23:52:32.991Z,29.37
2019-02-07T23:55:23.064Z,31.70
2019-02-07T23:58:15.901Z,34.77
